createdAt,value
2023-04-16T00:03:19.190Z,8.41
2023-04-16T00:08:12.159Z,8.38
2023-04-16T00:13:04.903Z,8.37
2023-04-16T00:17:57.734Z,8.35
2023-04-16T00:22:50.450Z,8.34
2023-04-16T00:27:43.175Z,8.34
2023-04-16T00:32:35.939Z,8.36
2023-04-16T00:37:28.817Z,8.33
2023-04-16T00:42:21.513Z,8.28
2023-04-16T00:47:14.588Z,8.22
2023-04-16T00:52:07.631Z,8.18
2023-04-16T00:57:00.521Z,8.15
2023-04-16T01:01:53.385Z,8.11
2023-04-16T01:06:46.082Z,8.11
2023-04-16T01:11:40.204Z,8.08
2023-04-16T01:16:33.687Z,8.08
2023-04-16T01:21:26.738Z,8.05
2023-04-16T01:26:20.007Z,8.06
2023-04-16T01:31:12.854Z,8.05
2023-04-16T01:36:19.268Z,8.03
2023-04-16T01:41:11.951Z,8.02
2023-04-16T01:46:13.981Z,8.03
2023-04-16T01:51:06.896Z,8.05
2023-04-16T01:55:59.588Z,8.02
2023-04-16T02:00:52.434Z,8.01
2023-04-16T02:05:45.742Z,8.00
2023-04-16T02:10:38.402Z,8.01
2023-04-16T02:15:31.386Z,8.02
2023-04-16T02:20:24.670Z,8.04
2023-04-16T02:25:20.209Z,8.05
2023-04-16T02:30:13.786Z,8.06
2023-04-16T02:35:06.882Z,8.05
2023-04-16T02:39:59.586Z,8.06
2023-04-16T02:44:52.920Z,8.05
2023-04-16T02:49:45.668Z,8.04
2023-04-16T02:54:38.528Z,8.04
2023-04-16T02:59:31.226Z,8.03
2023-04-16T03:04:24.113Z,8.01
2023-04-16T03:09:17.386Z,8.02
2023-04-16T03:14:10.187Z,8.02
2023-04-16T03:19:02.868Z,8.01
2023-04-16T03:23:56.190Z,7.97
2023-04-16T03:28:48.922Z,7.95
2023-04-16T03:33:42.710Z,7.94
2023-04-16T03:38:35.724Z,7.92
2023-04-16T03:43:28.793Z,7.93
2023-04-16T03:48:22.041Z,7.93
2023-04-16T03:53:15.144Z,7.94
2023-04-16T03:58:08.317Z,7.92
2023-04-16T04:03:01.678Z,7.90
2023-04-16T04:07:54.746Z,7.86
2023-04-16T04:12:47.623Z,7.85
2023-04-16T04:17:40.444Z,7.86
2023-04-16T04:22:33.375Z,7.90
2023-04-16T04:27:26.318Z,7.94
2023-04-16T04:32:19.202Z,7.98
2023-04-16T04:37:13.635Z,8.08
2023-04-16T04:42:06.442Z,8.19
2023-04-16T04:46:59.213Z,8.27
2023-04-16T04:51:52.061Z,8.32
2023-04-16T04:56:46.645Z,8.36
2023-04-16T05:01:40.205Z,8.40
2023-04-16T05:06:32.949Z,8.47
2023-04-16T05:11:25.931Z,8.55
2023-04-16T05:16:18.629Z,8.60
2023-04-16T05:21:11.351Z,8.62
2023-04-16T05:26:04.041Z,8.62
2023-04-16T05:30:56.851Z,8.67
2023-04-16T05:35:49.639Z,8.71
2023-04-16T05:40:42.481Z,8.75
2023-04-16T05:45:39.816Z,8.77
2023-04-16T05:50:32.525Z,8.83
2023-04-16T05:55:25.211Z,8.89
2023-04-16T06:00:18.133Z,8.99
2023-04-16T06:05:11.071Z,9.08
2023-04-16T06:10:03.781Z,9.20
2023-04-16T06:14:56.520Z,9.37
2023-04-16T06:19:49.239Z,9.50
2023-04-16T06:24:42.034Z,9.67
2023-04-16T06:29:41.147Z,9.90
2023-04-16T06:34:34.691Z,10.14
2023-04-16T06:39:27.718Z,10.30
2023-04-16T06:44:20.415Z,10.36
2023-04-16T06:49:13.168Z,10.41
2023-04-16T06:54:05.902Z,10.43
2023-04-16T06:59:00.993Z,10.47
2023-04-16T07:03:54.044Z,10.54
2023-04-16T07:08:47.006Z,10.58
2023-04-16T07:13:39.684Z,10.61
2023-04-16T07:18:32.874Z,10.63
2023-04-16T07:23:25.550Z,10.63
2023-04-16T07:28:18.285Z,10.66
2023-04-16T07:33:11.151Z,10.79
2023-04-16T07:38:03.888Z,10.97
2023-04-16T07:42:56.801Z,11.07
2023-04-16T07:47:49.560Z,11.10
2023-04-16T07:52:43.740Z,11.16
2023-04-16T07:57:37.378Z,11.20
2023-04-16T08:02:30.336Z,11.19
2023-04-16T08:07:23.197Z,11.14
2023-04-16T08:12:16.353Z,11.13
2023-04-16T08:17:09.356Z,11.19
2023-04-16T08:22:02.074Z,11.23
2023-04-16T08:26:55.916Z,11.30
2023-04-16T08:31:53.783Z,11.48
2023-04-16T08:36:46.577Z,11.59
2023-04-16T08:41:40.248Z,11.65
2023-04-16T08:46:34.848Z,11.80
2023-04-16T08:51:31.302Z,12.10
2023-04-16T08:56:27.041Z,12.40
2023-04-16T09:01:20.165Z,12.62
2023-04-16T09:06:56.660Z,12.69
2023-04-16T09:11:54.093Z,12.81
2023-04-16T09:16:47.839Z,12.93
2023-04-16T09:21:42.395Z,12.97
2023-04-16T09:26:35.594Z,13.16
2023-04-16T09:31:28.369Z,13.40
2023-04-16T09:36:24.355Z,13.59
2023-04-16T09:41:17.875Z,13.62
2023-04-16T09:46:12.476Z,13.70
2023-04-16T09:51:06.992Z,13.86
2023-04-16T09:55:59.721Z,13.79
2023-04-16T10:01:12.178Z,13.76
2023-04-16T10:06:08.043Z,13.76
2023-04-16T10:11:00.933Z,13.74
2023-04-16T10:15:53.641Z,13.82
2023-04-16T10:20:46.745Z,13.82
2023-04-16T10:25:39.983Z,13.87
2023-04-16T10:30:32.945Z,13.90
2023-04-16T10:35:26.847Z,14.27
2023-04-16T10:40:26.921Z,14.68
2023-04-16T10:45:19.610Z,14.82
2023-04-16T10:50:18.676Z,14.67
2023-04-16T10:55:17.762Z,14.69
2023-04-16T11:00:23.311Z,14.79
2023-04-16T11:05:16.037Z,14.91
2023-04-16T11:10:13.910Z,14.87
2023-04-16T11:15:07.968Z,14.94
2023-04-16T11:20:00.672Z,15.18
2023-04-16T11:24:57.365Z,15.68
2023-04-16T11:30:04.337Z,15.96
2023-04-16T11:34:57.027Z,15.53
2023-04-16T11:39:51.046Z,15.11
2023-04-16T11:44:45.057Z,14.92
2023-04-16T11:49:37.760Z,15.16
2023-04-16T11:54:34.811Z,15.77
2023-04-16T11:59:28.418Z,16.31
2023-04-16T12:04:22.470Z,17.00
2023-04-16T12:09:25.373Z,17.90
2023-04-16T12:14:18.191Z,18.29
2023-04-16T12:19:12.978Z,17.69
2023-04-16T12:24:06.550Z,17.16
2023-04-16T12:29:15.431Z,16.82
2023-04-16T12:34:08.495Z,17.22
2023-04-16T12:39:01.219Z,17.93
2023-04-16T12:43:53.920Z,18.59
2023-04-16T12:48:46.695Z,18.47
2023-04-16T12:53:39.426Z,17.62
2023-04-16T12:58:32.127Z,17.17
2023-04-16T13:03:25.052Z,16.82
2023-04-16T13:08:17.875Z,16.52
2023-04-16T13:13:10.535Z,16.21
2023-04-16T13:18:03.378Z,15.99
2023-04-16T13:22:56.172Z,15.93
2023-04-16T13:27:48.874Z,16.30
2023-04-16T13:32:41.795Z,16.54
2023-04-16T13:37:34.500Z,16.32
2023-04-16T13:42:28.682Z,16.20
2023-04-16T13:47:21.540Z,16.47
2023-04-16T13:52:14.625Z,17.26
2023-04-16T13:57:07.468Z,17.88
2023-04-16T14:02:00.440Z,18.06
2023-04-16T14:06:53.217Z,18.22
2023-04-16T14:11:46.016Z,18.25
2023-04-16T14:16:38.842Z,17.70
2023-04-16T14:21:32.357Z,17.09
2023-04-16T14:26:25.484Z,16.52
2023-04-16T14:31:20.084Z,16.11
2023-04-16T14:36:12.932Z,15.96
2023-04-16T14:41:05.660Z,15.86
2023-04-16T14:45:58.801Z,15.93
2023-04-16T14:50:51.626Z,15.98
2023-04-16T14:55:44.320Z,15.80
2023-04-16T15:00:37.073Z,15.70
2023-04-16T15:05:31.604Z,15.75
2023-04-16T15:10:24.362Z,15.97
2023-04-16T15:15:17.688Z,15.84
2023-04-16T15:20:10.637Z,15.66
2023-04-16T15:25:03.446Z,15.60
2023-04-16T15:29:56.147Z,15.99
2023-04-16T15:34:48.844Z,16.22
2023-04-16T15:39:41.723Z,16.30
2023-04-16T15:44:34.577Z,16.37
2023-04-16T15:49:31.417Z,16.32
2023-04-16T15:54:24.636Z,16.14
2023-04-16T15:59:18.058Z,15.95
2023-04-16T16:04:10.983Z,15.73
2023-04-16T16:09:04.051Z,15.51
2023-04-16T16:13:56.741Z,15.35
2023-04-16T16:18:49.436Z,15.26
2023-04-16T16:23:42.681Z,15.34
2023-04-16T16:28:37.694Z,15.39
2023-04-16T16:33:30.737Z,15.27
2023-04-16T16:38:23.766Z,15.06
2023-04-16T16:43:16.655Z,14.89
2023-04-16T16:48:09.896Z,14.73
2023-04-16T16:53:02.872Z,14.58
2023-04-16T16:57:56.223Z,14.35
2023-04-16T17:02:51.355Z,14.09
2023-04-16T17:07:44.329Z,13.87
2023-04-16T17:12:37.003Z,13.68
2023-04-16T17:17:29.823Z,13.50
2023-04-16T17:22:22.898Z,13.31
2023-04-16T17:27:15.598Z,13.11
2023-04-16T17:32:08.653Z,12.94
2023-04-16T17:37:01.560Z,12.80
2023-04-16T17:41:54.461Z,12.68
2023-04-16T17:46:47.297Z,12.52
2023-04-16T17:51:41.238Z,12.37
2023-04-16T17:56:34.074Z,12.21
2023-04-16T18:01:27.618Z,12.09
2023-04-16T18:06:20.809Z,11.99
2023-04-16T18:11:13.487Z,11.87
2023-04-16T18:16:07.781Z,11.75
2023-04-16T18:21:00.589Z,11.65
2023-04-16T18:25:54.576Z,11.55
2023-04-16T18:30:47.431Z,11.46
2023-04-16T18:35:41.525Z,11.37
2023-04-16T18:40:38.131Z,11.25
2023-04-16T18:45:31.379Z,11.19
2023-04-16T18:50:24.207Z,11.14
2023-04-16T18:55:16.964Z,11.12
2023-04-16T19:00:12.843Z,11.10
2023-04-16T19:05:06.513Z,11.11
2023-04-16T19:10:00.205Z,11.10
2023-04-16T19:14:52.987Z,11.10
2023-04-16T19:19:45.906Z,11.09
2023-04-16T19:24:39.739Z,11.07
2023-04-16T19:29:36.103Z,11.05
2023-04-16T19:34:28.877Z,11.03
2023-04-16T19:39:21.573Z,10.99
2023-04-16T19:44:14.250Z,10.94
2023-04-16T19:49:06.978Z,10.89
2023-04-16T19:53:59.889Z,10.83
2023-04-16T19:58:52.615Z,10.77
2023-04-16T20:03:45.736Z,10.71
2023-04-16T20:08:38.616Z,10.65
2023-04-16T20:13:31.394Z,10.60
2023-04-16T20:18:24.878Z,10.55
2023-04-16T20:23:18.750Z,10.49
2023-04-16T20:28:11.515Z,10.43
2023-04-16T20:33:04.237Z,10.38
2023-04-16T20:37:57.017Z,10.35
2023-04-16T20:42:52.259Z,10.30
2023-04-16T20:47:45.098Z,10.22
2023-04-16T20:52:38.212Z,10.16
2023-04-16T20:57:32.164Z,10.11
2023-04-16T21:02:25.486Z,10.05
2023-04-16T21:07:18.477Z,9.99
2023-04-16T21:12:11.460Z,9.91
2023-04-16T21:17:04.198Z,9.86
2023-04-16T21:21:56.911Z,9.82
2023-04-16T21:26:49.632Z,9.80
2023-04-16T21:31:42.345Z,9.78
2023-04-16T21:36:35.278Z,9.73
2023-04-16T21:41:28.033Z,9.67
2023-04-16T21:46:20.860Z,9.58
2023-04-16T21:51:14.202Z,9.50
2023-04-16T21:56:07.727Z,9.43
2023-04-16T22:01:00.525Z,9.35
2023-04-16T22:06:01.659Z,9.26
2023-04-16T22:10:57.696Z,9.14
2023-04-16T22:15:51.120Z,9.06
2023-04-16T22:20:43.863Z,9.03
2023-04-16T22:25:36.538Z,9.02
2023-04-16T22:30:29.253Z,9.05
2023-04-16T22:35:22.529Z,9.11
2023-04-16T22:40:16.003Z,9.13
2023-04-16T22:45:09.545Z,9.17
2023-04-16T22:50:02.308Z,9.20
2023-04-16T22:54:55.168Z,9.21
2023-04-16T22:59:48.016Z,9.22
2023-04-16T23:04:40.725Z,9.23
2023-04-16T23:09:34.333Z,9.23
2023-04-16T23:14:27.441Z,9.22
2023-04-16T23:19:20.157Z,9.21
2023-04-16T23:24:12.838Z,9.19
2023-04-16T23:29:05.513Z,9.15
2023-04-16T23:33:58.214Z,9.11
2023-04-16T23:38:51.185Z,9.09
2023-04-16T23:43:43.853Z,9.09
2023-04-16T23:48:36.545Z,9.06
2023-04-16T23:53:29.243Z,9.00
2023-04-16T23:58:21.965Z,8.98
